sensor_id;sensor_type;location;lat;lon;timestamp;P1;durP1;ratioP1;P2;durP2;ratioP2
34900;SDS011;21112;51.976;5.660;2023-02-15T00:00:31;30.50;;;11.85;;
34900;SDS011;21112;51.976;5.660;2023-02-15T00:02:57;30.58;;;12.73;;
34900;SDS011;21112;51.976;5.660;2023-02-15T00:05:24;26.58;;;12.25;;
34900;SDS011;21112;51.976;5.660;2023-02-15T00:07:50;28.17;;;11.70;;
34900;SDS011;21112;51.976;5.660;2023-02-15T00:10:17;34.92;;;13.25;;
34900;SDS011;21112;51.976;5.660;2023-02-15T00:12:44;29.65;;;12.02;;
34900;SDS011;21112;51.976;5.660;2023-02-15T00:15:12;27.92;;;12.15;;
34900;SDS011;21112;51.976;5.660;2023-02-15T00:17:41;25.67;;;11.80;;
34900;SDS011;21112;51.976;5.660;2023-02-15T00:20:09;27.38;;;11.88;;
34900;SDS011;21112;51.976;5.660;2023-02-15T00:22:37;27.27;;;12.07;;
34900;SDS011;21112;51.976;5.660;2023-02-15T00:25:04;26.75;;;12.20;;
34900;SDS011;21112;51.976;5.660;2023-02-15T00:27:31;27.05;;;12.25;;
34900;SDS011;21112;51.976;5.660;2023-02-15T00:29:59;27.07;;;11.50;;
34900;SDS011;21112;51.976;5.660;2023-02-15T00:32:25;26.15;;;12.25;;
34900;SDS011;21112;51.976;5.660;2023-02-15T00:34:53;28.70;;;12.80;;
34900;SDS011;21112;51.976;5.660;2023-02-15T00:37:20;28.13;;;11.07;;
34900;SDS011;21112;51.976;5.660;2023-02-15T00:39:48;27.65;;;12.10;;
34900;SDS011;21112;51.976;5.660;2023-02-15T00:42:15;24.65;;;11.73;;
34900;SDS011;21112;51.976;5.660;2023-02-15T00:44:45;29.05;;;12.65;;
34900;SDS011;21112;51.976;5.660;2023-02-15T00:47:12;29.92;;;12.85;;
34900;SDS011;21112;51.976;5.660;2023-02-15T00:49:39;27.33;;;12.40;;
34900;SDS011;21112;51.976;5.660;2023-02-15T00:52:07;30.63;;;12.43;;
34900;SDS011;21112;51.976;5.660;2023-02-15T00:54:33;25.67;;;12.00;;
34900;SDS011;21112;51.976;5.660;2023-02-15T00:57:00;32.42;;;12.50;;
34900;SDS011;21112;51.976;5.660;2023-02-15T00:59:27;27.67;;;13.13;;
34900;SDS011;21112;51.976;5.660;2023-02-15T01:01:53;26.00;;;12.00;;
34900;SDS011;21112;51.976;5.660;2023-02-15T01:04:20;29.38;;;12.40;;
34900;SDS011;21112;51.976;5.660;2023-02-15T01:06:46;28.85;;;12.27;;
34900;SDS011;21112;51.976;5.660;2023-02-15T01:09:17;29.83;;;12.25;;
34900;SDS011;21112;51.976;5.660;2023-02-15T01:11:44;25.58;;;11.40;;
34900;SDS011;21112;51.976;5.660;2023-02-15T01:14:11;27.63;;;12.10;;
34900;SDS011;21112;51.976;5.660;2023-02-15T01:16:38;25.58;;;11.93;;
34900;SDS011;21112;51.976;5.660;2023-02-15T01:19:05;28.50;;;11.68;;
34900;SDS011;21112;51.976;5.660;2023-02-15T01:21:34;25.42;;;11.82;;
34900;SDS011;21112;51.976;5.660;2023-02-15T01:24:00;29.95;;;12.18;;
34900;SDS011;21112;51.976;5.660;2023-02-15T01:26:28;26.25;;;12.23;;
34900;SDS011;21112;51.976;5.660;2023-02-15T01:28:55;29.57;;;12.70;;
34900;SDS011;21112;51.976;5.660;2023-02-15T01:31:25;25.92;;;11.32;;
34900;SDS011;21112;51.976;5.660;2023-02-15T01:33:51;25.35;;;10.77;;
34900;SDS011;21112;51.976;5.660;2023-02-15T01:36:18;26.77;;;12.10;;
34900;SDS011;21112;51.976;5.660;2023-02-15T01:38:44;24.08;;;11.00;;
34900;SDS011;21112;51.976;5.660;2023-02-15T01:41:11;24.65;;;11.45;;
34900;SDS011;21112;51.976;5.660;2023-02-15T01:43:50;27.90;;;11.02;;
34900;SDS011;21112;51.976;5.660;2023-02-15T01:46:17;26.17;;;11.40;;
34900;SDS011;21112;51.976;5.660;2023-02-15T01:48:46;29.80;;;11.57;;
34900;SDS011;21112;51.976;5.660;2023-02-15T01:51:16;25.80;;;11.38;;
34900;SDS011;21112;51.976;5.660;2023-02-15T01:53:45;27.40;;;11.55;;
34900;SDS011;21112;51.976;5.660;2023-02-15T01:56:15;24.60;;;10.75;;
34900;SDS011;21112;51.976;5.660;2023-02-15T01:59:02;27.48;;;11.73;;
34900;SDS011;21112;51.976;5.660;2023-02-15T02:01:30;26.38;;;11.13;;
34900;SDS011;21112;51.976;5.660;2023-02-15T02:03:58;24.92;;;10.95;;
34900;SDS011;21112;51.976;5.660;2023-02-15T02:06:26;26.23;;;11.10;;
34900;SDS011;21112;51.976;5.660;2023-02-15T02:08:53;26.20;;;11.27;;
34900;SDS011;21112;51.976;5.660;2023-02-15T02:11:21;25.17;;;11.35;;
34900;SDS011;21112;51.976;5.660;2023-02-15T02:13:48;26.02;;;11.25;;
34900;SDS011;21112;51.976;5.660;2023-02-15T02:16:20;24.13;;;10.82;;
34900;SDS011;21112;51.976;5.660;2023-02-15T02:18:51;24.70;;;11.23;;
34900;SDS011;21112;51.976;5.660;2023-02-15T02:24:12;27.23;;;10.93;;
34900;SDS011;21112;51.976;5.660;2023-02-15T02:26:51;26.92;;;11.50;;
34900;SDS011;21112;51.976;5.660;2023-02-15T02:29:28;24.63;;;10.87;;
34900;SDS011;21112;51.976;5.660;2023-02-15T02:34:32;24.33;;;10.38;;
34900;SDS011;21112;51.976;5.660;2023-02-15T02:37:03;29.38;;;10.80;;
34900;SDS011;21112;51.976;5.660;2023-02-15T02:39:33;24.77;;;10.05;;
34900;SDS011;21112;51.976;5.660;2023-02-15T02:42:05;24.88;;;9.88;;
34900;SDS011;21112;51.976;5.660;2023-02-15T02:44:34;27.27;;;10.27;;
34900;SDS011;21112;51.976;5.660;2023-02-15T02:47:09;23.50;;;10.48;;
34900;SDS011;21112;51.976;5.660;2023-02-15T02:52:07;21.75;;;9.57;;
34900;SDS011;21112;51.976;5.660;2023-02-15T02:54:57;20.55;;;9.93;;
34900;SDS011;21112;51.976;5.660;2023-02-15T02:57:24;29.10;;;10.68;;
34900;SDS011;21112;51.976;5.660;2023-02-15T02:59:52;23.05;;;9.95;;
34900;SDS011;21112;51.976;5.660;2023-02-15T03:02:21;29.57;;;10.67;;
34900;SDS011;21112;51.976;5.660;2023-02-15T03:04:49;25.17;;;10.47;;
34900;SDS011;21112;51.976;5.660;2023-02-15T03:07:23;24.83;;;9.75;;
34900;SDS011;21112;51.976;5.660;2023-02-15T03:09:50;22.92;;;10.55;;
34900;SDS011;21112;51.976;5.660;2023-02-15T03:12:20;21.73;;;9.68;;
34900;SDS011;21112;51.976;5.660;2023-02-15T03:14:49;23.27;;;10.43;;
34900;SDS011;21112;51.976;5.660;2023-02-15T03:19:43;22.45;;;9.57;;
34900;SDS011;21112;51.976;5.660;2023-02-15T03:22:13;21.52;;;9.45;;
34900;SDS011;21112;51.976;5.660;2023-02-15T03:24:41;24.17;;;9.70;;
34900;SDS011;21112;51.976;5.660;2023-02-15T03:27:10;23.38;;;9.65;;
34900;SDS011;21112;51.976;5.660;2023-02-15T03:29:40;23.30;;;10.13;;
34900;SDS011;21112;51.976;5.660;2023-02-15T03:32:07;20.83;;;9.27;;
34900;SDS011;21112;51.976;5.660;2023-02-15T03:34:37;24.75;;;9.75;;
34900;SDS011;21112;51.976;5.660;2023-02-15T03:37:06;21.98;;;9.85;;
34900;SDS011;21112;51.976;5.660;2023-02-15T03:39:37;24.42;;;10.35;;
34900;SDS011;21112;51.976;5.660;2023-02-15T03:42:08;24.10;;;10.10;;
34900;SDS011;21112;51.976;5.660;2023-02-15T03:44:38;22.02;;;9.73;;
34900;SDS011;21112;51.976;5.660;2023-02-15T03:47:11;22.85;;;9.55;;
34900;SDS011;21112;51.976;5.660;2023-02-15T03:49:40;25.45;;;9.55;;
34900;SDS011;21112;51.976;5.660;2023-02-15T03:52:08;19.52;;;9.48;;
34900;SDS011;21112;51.976;5.660;2023-02-15T03:54:35;23.23;;;9.25;;
34900;SDS011;21112;51.976;5.660;2023-02-15T04:00:00;24.20;;;9.52;;
34900;SDS011;21112;51.976;5.660;2023-02-15T04:02:47;21.33;;;9.63;;
34900;SDS011;21112;51.976;5.660;2023-02-15T04:05:25;21.63;;;8.90;;
34900;SDS011;21112;51.976;5.660;2023-02-15T04:07:51;21.50;;;9.20;;
34900;SDS011;21112;51.976;5.660;2023-02-15T04:10:18;22.60;;;9.10;;
34900;SDS011;21112;51.976;5.660;2023-02-15T04:13:02;20.30;;;9.02;;
34900;SDS011;21112;51.976;5.660;2023-02-15T04:15:28;24.00;;;9.65;;
34900;SDS011;21112;51.976;5.660;2023-02-15T04:18:14;23.67;;;9.65;;
34900;SDS011;21112;51.976;5.660;2023-02-15T04:20:43;22.30;;;10.07;;
34900;SDS011;21112;51.976;5.660;2023-02-15T04:23:27;25.30;;;9.75;;
34900;SDS011;21112;51.976;5.660;2023-02-15T04:26:11;25.60;;;9.95;;
34900;SDS011;21112;51.976;5.660;2023-02-15T04:28:37;22.95;;;9.75;;
34900;SDS011;21112;51.976;5.660;2023-02-15T04:31:04;24.42;;;9.30;;
34900;SDS011;21112;51.976;5.660;2023-02-15T04:33:32;26.23;;;9.65;;
34900;SDS011;21112;51.976;5.660;2023-02-15T04:36:01;23.23;;;10.18;;
34900;SDS011;21112;51.976;5.660;2023-02-15T04:38:28;24.95;;;9.07;;
34900;SDS011;21112;51.976;5.660;2023-02-15T04:40:54;21.48;;;8.93;;
34900;SDS011;21112;51.976;5.660;2023-02-15T04:48:13;25.05;;;9.55;;
34900;SDS011;21112;51.976;5.660;2023-02-15T04:50:41;23.17;;;9.27;;
34900;SDS011;21112;51.976;5.660;2023-02-15T04:53:08;20.92;;;8.27;;
34900;SDS011;21112;51.976;5.660;2023-02-15T04:55:34;20.80;;;8.35;;
34900;SDS011;21112;51.976;5.660;2023-02-15T04:58:01;22.77;;;9.18;;
34900;SDS011;21112;51.976;5.660;2023-02-15T05:00:28;23.73;;;9.68;;
34900;SDS011;21112;51.976;5.660;2023-02-15T05:02:54;20.52;;;8.80;;
34900;SDS011;21112;51.976;5.660;2023-02-15T05:05:21;25.63;;;9.95;;
34900;SDS011;21112;51.976;5.660;2023-02-15T05:07:49;22.88;;;9.40;;
34900;SDS011;21112;51.976;5.660;2023-02-15T05:10:16;20.60;;;9.32;;
34900;SDS011;21112;51.976;5.660;2023-02-15T05:12:42;20.60;;;9.05;;
34900;SDS011;21112;51.976;5.660;2023-02-15T05:15:09;21.10;;;8.90;;
34900;SDS011;21112;51.976;5.660;2023-02-15T05:17:36;24.10;;;8.75;;
34900;SDS011;21112;51.976;5.660;2023-02-15T05:20:03;25.00;;;9.93;;
34900;SDS011;21112;51.976;5.660;2023-02-15T05:22:30;20.63;;;8.35;;
34900;SDS011;21112;51.976;5.660;2023-02-15T05:24:58;21.02;;;8.80;;
34900;SDS011;21112;51.976;5.660;2023-02-15T05:27:42;21.08;;;9.20;;
34900;SDS011;21112;51.976;5.660;2023-02-15T05:30:26;18.48;;;8.05;;
34900;SDS011;21112;51.976;5.660;2023-02-15T05:32:53;22.05;;;9.05;;
34900;SDS011;21112;51.976;5.660;2023-02-15T05:35:20;21.35;;;9.00;;
34900;SDS011;21112;51.976;5.660;2023-02-15T05:37:47;23.40;;;9.27;;
34900;SDS011;21112;51.976;5.660;2023-02-15T05:40:15;17.90;;;8.02;;
34900;SDS011;21112;51.976;5.660;2023-02-15T05:42:44;19.85;;;8.80;;
34900;SDS011;21112;51.976;5.660;2023-02-15T05:45:11;20.63;;;9.00;;
34900;SDS011;21112;51.976;5.660;2023-02-15T05:47:38;20.15;;;8.90;;
34900;SDS011;21112;51.976;5.660;2023-02-15T05:50:09;21.05;;;8.65;;
34900;SDS011;21112;51.976;5.660;2023-02-15T05:52:36;23.48;;;9.43;;
34900;SDS011;21112;51.976;5.660;2023-02-15T05:55:05;21.65;;;9.57;;
34900;SDS011;21112;51.976;5.660;2023-02-15T05:57:36;26.05;;;9.65;;
34900;SDS011;21112;51.976;5.660;2023-02-15T06:00:11;20.98;;;8.98;;
34900;SDS011;21112;51.976;5.660;2023-02-15T06:02:39;21.65;;;8.23;;
34900;SDS011;21112;51.976;5.660;2023-02-15T06:05:08;26.58;;;9.20;;
34900;SDS011;21112;51.976;5.660;2023-02-15T06:07:35;19.77;;;8.85;;
34900;SDS011;21112;51.976;5.660;2023-02-15T06:10:02;20.30;;;9.45;;
34900;SDS011;21112;51.976;5.660;2023-02-15T06:12:30;21.27;;;9.20;;
34900;SDS011;21112;51.976;5.660;2023-02-15T06:14:58;25.02;;;9.65;;
34900;SDS011;21112;51.976;5.660;2023-02-15T06:17:25;22.15;;;8.88;;
34900;SDS011;21112;51.976;5.660;2023-02-15T06:19:52;23.77;;;8.98;;
34900;SDS011;21112;51.976;5.660;2023-02-15T06:22:18;24.42;;;9.98;;
34900;SDS011;21112;51.976;5.660;2023-02-15T06:24:45;22.45;;;9.32;;
34900;SDS011;21112;51.976;5.660;2023-02-15T06:27:12;23.50;;;9.52;;
34900;SDS011;21112;51.976;5.660;2023-02-15T06:29:38;21.65;;;9.73;;
34900;SDS011;21112;51.976;5.660;2023-02-15T06:32:07;21.63;;;9.40;;
34900;SDS011;21112;51.976;5.660;2023-02-15T06:34:33;22.33;;;10.27;;
34900;SDS011;21112;51.976;5.660;2023-02-15T06:37:00;21.58;;;9.25;;
34900;SDS011;21112;51.976;5.660;2023-02-15T06:41:55;19.48;;;8.32;;
34900;SDS011;21112;51.976;5.660;2023-02-15T06:47:14;21.42;;;9.25;;
34900;SDS011;21112;51.976;5.660;2023-02-15T06:49:40;28.70;;;9.35;;
34900;SDS011;21112;51.976;5.660;2023-02-15T06:52:14;27.10;;;9.00;;
34900;SDS011;21112;51.976;5.660;2023-02-15T06:57:07;20.88;;;8.63;;
34900;SDS011;21112;51.976;5.660;2023-02-15T06:59:35;22.33;;;9.23;;
34900;SDS011;21112;51.976;5.660;2023-02-15T07:02:05;20.67;;;9.88;;
34900;SDS011;21112;51.976;5.660;2023-02-15T07:04:36;24.73;;;8.93;;
34900;SDS011;21112;51.976;5.660;2023-02-15T07:15:03;20.95;;;9.20;;
34900;SDS011;21112;51.976;5.660;2023-02-15T07:17:34;20.13;;;9.07;;
34900;SDS011;21112;51.976;5.660;2023-02-15T07:20:17;21.63;;;8.63;;
34900;SDS011;21112;51.976;5.660;2023-02-15T07:22:48;23.27;;;10.10;;
34900;SDS011;21112;51.976;5.660;2023-02-15T07:27:42;20.77;;;9.00;;
34900;SDS011;21112;51.976;5.660;2023-02-15T07:30:12;24.30;;;9.65;;
34900;SDS011;21112;51.976;5.660;2023-02-15T07:32:40;22.80;;;9.50;;
34900;SDS011;21112;51.976;5.660;2023-02-15T07:35:30;23.55;;;9.80;;
34900;SDS011;21112;51.976;5.660;2023-02-15T07:37:59;23.85;;;9.43;;
34900;SDS011;21112;51.976;5.660;2023-02-15T07:40:27;23.73;;;10.52;;
34900;SDS011;21112;51.976;5.660;2023-02-15T07:42:57;22.50;;;8.85;;
34900;SDS011;21112;51.976;5.660;2023-02-15T07:50:57;26.55;;;9.05;;
34900;SDS011;21112;51.976;5.660;2023-02-15T07:53:26;24.63;;;10.43;;
34900;SDS011;21112;51.976;5.660;2023-02-15T07:58:46;26.52;;;10.38;;
34900;SDS011;21112;51.976;5.660;2023-02-15T08:01:24;23.13;;;9.38;;
34900;SDS011;21112;51.976;5.660;2023-02-15T08:03:54;27.42;;;10.38;;
34900;SDS011;21112;51.976;5.660;2023-02-15T08:06:21;24.25;;;10.55;;
34900;SDS011;21112;51.976;5.660;2023-02-15T08:08:52;28.98;;;11.18;;
34900;SDS011;21112;51.976;5.660;2023-02-15T08:11:30;27.67;;;10.77;;
34900;SDS011;21112;51.976;5.660;2023-02-15T08:14:03;26.52;;;11.52;;
34900;SDS011;21112;51.976;5.660;2023-02-15T08:16:32;22.33;;;9.90;;
34900;SDS011;21112;51.976;5.660;2023-02-15T08:19:03;28.13;;;11.02;;
34900;SDS011;21112;51.976;5.660;2023-02-15T08:21:35;24.17;;;11.07;;
34900;SDS011;21112;51.976;5.660;2023-02-15T08:24:08;31.58;;;11.27;;
34900;SDS011;21112;51.976;5.660;2023-02-15T08:26:35;26.40;;;11.70;;
34900;SDS011;21112;51.976;5.660;2023-02-15T08:29:14;27.23;;;10.35;;
34900;SDS011;21112;51.976;5.660;2023-02-15T08:31:50;28.13;;;12.15;;
34900;SDS011;21112;51.976;5.660;2023-02-15T08:34:20;26.48;;;11.15;;
34900;SDS011;21112;51.976;5.660;2023-02-15T08:36:51;30.88;;;12.35;;
34900;SDS011;21112;51.976;5.660;2023-02-15T08:39:28;28.77;;;11.05;;
34900;SDS011;21112;51.976;5.660;2023-02-15T08:42:00;27.02;;;11.02;;
34900;SDS011;21112;51.976;5.660;2023-02-15T08:44:29;31.75;;;12.00;;
34900;SDS011;21112;51.976;5.660;2023-02-15T08:46:59;26.67;;;10.88;;
34900;SDS011;21112;51.976;5.660;2023-02-15T08:49:31;27.95;;;12.40;;
34900;SDS011;21112;51.976;5.660;2023-02-15T08:54:38;27.40;;;11.52;;
34900;SDS011;21112;51.976;5.660;2023-02-15T08:57:07;26.88;;;10.85;;
34900;SDS011;21112;51.976;5.660;2023-02-15T08:59:39;34.67;;;11.90;;
34900;SDS011;21112;51.976;5.660;2023-02-15T09:07:17;30.75;;;12.40;;
34900;SDS011;21112;51.976;5.660;2023-02-15T09:09:49;25.75;;;11.50;;
34900;SDS011;21112;51.976;5.660;2023-02-15T09:12:16;31.25;;;11.57;;
34900;SDS011;21112;51.976;5.660;2023-02-15T09:14:47;30.52;;;12.48;;
34900;SDS011;21112;51.976;5.660;2023-02-15T09:17:13;31.05;;;12.68;;
34900;SDS011;21112;51.976;5.660;2023-02-15T09:19:40;27.85;;;11.55;;
34900;SDS011;21112;51.976;5.660;2023-02-15T09:22:12;29.40;;;11.90;;
34900;SDS011;21112;51.976;5.660;2023-02-15T09:24:44;31.15;;;12.05;;
34900;SDS011;21112;51.976;5.660;2023-02-15T09:27:12;31.38;;;11.50;;
34900;SDS011;21112;51.976;5.660;2023-02-15T09:29:42;33.03;;;12.35;;
34900;SDS011;21112;51.976;5.660;2023-02-15T09:32:13;33.38;;;12.40;;
34900;SDS011;21112;51.976;5.660;2023-02-15T09:34:42;27.25;;;11.02;;
34900;SDS011;21112;51.976;5.660;2023-02-15T09:37:13;31.15;;;11.73;;
34900;SDS011;21112;51.976;5.660;2023-02-15T09:39:47;34.42;;;12.55;;
34900;SDS011;21112;51.976;5.660;2023-02-15T09:42:21;26.42;;;11.20;;
34900;SDS011;21112;51.976;5.660;2023-02-15T09:44:57;31.52;;;11.63;;
34900;SDS011;21112;51.976;5.660;2023-02-15T09:47:36;33.13;;;11.77;;
34900;SDS011;21112;51.976;5.660;2023-02-15T09:50:10;27.00;;;10.63;;
34900;SDS011;21112;51.976;5.660;2023-02-15T09:52:52;28.35;;;11.73;;
34900;SDS011;21112;51.976;5.660;2023-02-15T09:55:28;31.08;;;12.20;;
34900;SDS011;21112;51.976;5.660;2023-02-15T09:58:05;31.40;;;12.85;;
34900;SDS011;21112;51.976;5.660;2023-02-15T10:00:37;28.02;;;11.85;;
34900;SDS011;21112;51.976;5.660;2023-02-15T10:03:17;29.17;;;11.95;;
34900;SDS011;21112;51.976;5.660;2023-02-15T10:08:32;32.20;;;13.02;;
34900;SDS011;21112;51.976;5.660;2023-02-15T10:11:20;32.30;;;12.13;;
34900;SDS011;21112;51.976;5.660;2023-02-15T10:14:12;27.08;;;11.73;;
34900;SDS011;21112;51.976;5.660;2023-02-15T10:16:53;29.02;;;12.05;;
34900;SDS011;21112;51.976;5.660;2023-02-15T10:19:42;28.08;;;11.63;;
34900;SDS011;21112;51.976;5.660;2023-02-15T10:22:26;26.95;;;11.70;;
34900;SDS011;21112;51.976;5.660;2023-02-15T10:25:20;31.83;;;12.50;;
34900;SDS011;21112;51.976;5.660;2023-02-15T10:30:41;27.95;;;13.07;;
34900;SDS011;21112;51.976;5.660;2023-02-15T10:33:15;32.13;;;12.70;;
34900;SDS011;21112;51.976;5.660;2023-02-15T10:38:50;35.45;;;13.02;;
34900;SDS011;21112;51.976;5.660;2023-02-15T10:41:26;33.47;;;12.20;;
34900;SDS011;21112;51.976;5.660;2023-02-15T10:44:19;34.22;;;12.45;;
34900;SDS011;21112;51.976;5.660;2023-02-15T10:49:32;33.03;;;13.07;;
34900;SDS011;21112;51.976;5.660;2023-02-15T10:52:20;27.27;;;11.88;;
34900;SDS011;21112;51.976;5.660;2023-02-15T11:08:32;34.03;;;13.88;;
34900;SDS011;21112;51.976;5.660;2023-02-15T11:11:04;31.63;;;12.32;;
34900;SDS011;21112;51.976;5.660;2023-02-15T11:13:46;33.67;;;13.85;;
34900;SDS011;21112;51.976;5.660;2023-02-15T11:21:31;35.45;;;13.80;;
34900;SDS011;21112;51.976;5.660;2023-02-15T11:24:08;36.58;;;13.98;;
34900;SDS011;21112;51.976;5.660;2023-02-15T11:34:29;33.58;;;13.57;;
34900;SDS011;21112;51.976;5.660;2023-02-15T11:37:01;35.65;;;14.35;;
34900;SDS011;21112;51.976;5.660;2023-02-15T11:39:30;32.65;;;13.77;;
34900;SDS011;21112;51.976;5.660;2023-02-15T11:41:59;31.45;;;14.02;;
34900;SDS011;21112;51.976;5.660;2023-02-15T11:44:29;36.15;;;15.35;;
34900;SDS011;21112;51.976;5.660;2023-02-15T11:46:59;42.50;;;15.40;;
34900;SDS011;21112;51.976;5.660;2023-02-15T11:52:14;38.17;;;15.88;;
34900;SDS011;21112;51.976;5.660;2023-02-15T11:54:47;35.15;;;15.07;;
34900;SDS011;21112;51.976;5.660;2023-02-15T11:57:17;37.58;;;13.85;;
34900;SDS011;21112;51.976;5.660;2023-02-15T11:59:46;35.20;;;15.75;;
34900;SDS011;21112;51.976;5.660;2023-02-15T12:02:17;34.85;;;15.45;;
34900;SDS011;21112;51.976;5.660;2023-02-15T12:04:47;34.60;;;14.85;;
34900;SDS011;21112;51.976;5.660;2023-02-15T12:07:17;35.55;;;14.02;;
34900;SDS011;21112;51.976;5.660;2023-02-15T12:09:50;40.10;;;16.25;;
34900;SDS011;21112;51.976;5.660;2023-02-15T12:12:21;34.55;;;15.43;;
34900;SDS011;21112;51.976;5.660;2023-02-15T12:14:49;41.63;;;15.77;;
34900;SDS011;21112;51.976;5.660;2023-02-15T12:17:20;36.67;;;15.80;;
34900;SDS011;21112;51.976;5.660;2023-02-15T12:19:47;38.55;;;15.77;;
34900;SDS011;21112;51.976;5.660;2023-02-15T12:22:23;35.10;;;15.77;;
34900;SDS011;21112;51.976;5.660;2023-02-15T12:25:01;33.00;;;15.32;;
34900;SDS011;21112;51.976;5.660;2023-02-15T12:27:31;41.53;;;16.17;;
34900;SDS011;21112;51.976;5.660;2023-02-15T12:29:59;40.25;;;15.20;;
34900;SDS011;21112;51.976;5.660;2023-02-15T12:32:31;37.30;;;14.35;;
34900;SDS011;21112;51.976;5.660;2023-02-15T12:35:06;34.90;;;15.05;;
34900;SDS011;21112;51.976;5.660;2023-02-15T12:37:38;37.17;;;15.05;;
34900;SDS011;21112;51.976;5.660;2023-02-15T12:40:18;44.63;;;16.08;;
34900;SDS011;21112;51.976;5.660;2023-02-15T12:42:46;36.75;;;15.68;;
34900;SDS011;21112;51.976;5.660;2023-02-15T12:45:20;37.90;;;16.63;;
34900;SDS011;21112;51.976;5.660;2023-02-15T12:48:07;34.78;;;15.77;;
34900;SDS011;21112;51.976;5.660;2023-02-15T12:50:37;39.35;;;16.23;;
34900;SDS011;21112;51.976;5.660;2023-02-15T12:53:17;40.15;;;16.15;;
34900;SDS011;21112;51.976;5.660;2023-02-15T12:55:54;38.55;;;16.05;;
34900;SDS011;21112;51.976;5.660;2023-02-15T12:58:22;35.50;;;15.50;;
34900;SDS011;21112;51.976;5.660;2023-02-15T13:03:19;34.40;;;14.32;;
34900;SDS011;21112;51.976;5.660;2023-02-15T13:05:50;40.97;;;15.43;;
34900;SDS011;21112;51.976;5.660;2023-02-15T13:08:39;35.45;;;14.45;;
34900;SDS011;21112;51.976;5.660;2023-02-15T13:11:13;39.05;;;16.35;;
34900;SDS011;21112;51.976;5.660;2023-02-15T13:13:50;38.13;;;15.48;;
34900;SDS011;21112;51.976;5.660;2023-02-15T13:16:27;38.22;;;16.50;;
34900;SDS011;21112;51.976;5.660;2023-02-15T13:18:55;39.20;;;16.63;;
34900;SDS011;21112;51.976;5.660;2023-02-15T13:21:23;38.85;;;15.82;;
34900;SDS011;21112;51.976;5.660;2023-02-15T13:23:55;34.78;;;15.15;;
34900;SDS011;21112;51.976;5.660;2023-02-15T13:26:34;37.50;;;16.10;;
34900;SDS011;21112;51.976;5.660;2023-02-15T13:33:58;42.20;;;17.17;;
34900;SDS011;21112;51.976;5.660;2023-02-15T13:36:27;38.67;;;16.63;;
34900;SDS011;21112;51.976;5.660;2023-02-15T13:41:46;37.67;;;16.27;;
34900;SDS011;21112;51.976;5.660;2023-02-15T13:44:41;37.97;;;16.02;;
34900;SDS011;21112;51.976;5.660;2023-02-15T13:47:13;39.47;;;16.30;;
34900;SDS011;21112;51.976;5.660;2023-02-15T13:49:45;41.47;;;17.08;;
34900;SDS011;21112;51.976;5.660;2023-02-15T13:52:19;38.55;;;16.83;;
34900;SDS011;21112;51.976;5.660;2023-02-15T13:57:46;39.47;;;16.77;;
34900;SDS011;21112;51.976;5.660;2023-02-15T14:00:21;35.00;;;16.08;;
34900;SDS011;21112;51.976;5.660;2023-02-15T14:03:02;40.30;;;17.48;;
34900;SDS011;21112;51.976;5.660;2023-02-15T14:05:49;39.53;;;16.30;;
34900;SDS011;21112;51.976;5.660;2023-02-15T14:08:19;40.92;;;16.50;;
34900;SDS011;21112;51.976;5.660;2023-02-15T14:10:57;37.97;;;15.63;;
34900;SDS011;21112;51.976;5.660;2023-02-15T14:13:34;43.22;;;17.70;;
34900;SDS011;21112;51.976;5.660;2023-02-15T14:16:11;37.40;;;15.88;;
34900;SDS011;21112;51.976;5.660;2023-02-15T14:18:40;48.90;;;18.23;;
34900;SDS011;21112;51.976;5.660;2023-02-15T14:21:10;42.95;;;17.33;;
34900;SDS011;21112;51.976;5.660;2023-02-15T14:23:50;40.30;;;17.00;;
34900;SDS011;21112;51.976;5.660;2023-02-15T14:26:24;40.53;;;17.20;;
34900;SDS011;21112;51.976;5.660;2023-02-15T14:33:56;34.85;;;15.18;;
34900;SDS011;21112;51.976;5.660;2023-02-15T14:36:25;42.10;;;17.25;;
34900;SDS011;21112;51.976;5.660;2023-02-15T14:38:57;43.65;;;17.02;;
34900;SDS011;21112;51.976;5.660;2023-02-15T14:41:29;42.45;;;18.15;;
34900;SDS011;21112;51.976;5.660;2023-02-15T14:43:58;36.22;;;16.45;;
34900;SDS011;21112;51.976;5.660;2023-02-15T14:46:30;43.10;;;16.83;;
34900;SDS011;21112;51.976;5.660;2023-02-15T14:49:06;37.55;;;16.60;;
34900;SDS011;21112;51.976;5.660;2023-02-15T14:51:55;39.67;;;16.33;;
34900;SDS011;21112;51.976;5.660;2023-02-15T14:57:26;38.63;;;16.75;;
34900;SDS011;21112;51.976;5.660;2023-02-15T14:59:54;37.03;;;15.63;;
34900;SDS011;21112;51.976;5.660;2023-02-15T15:02:42;37.92;;;16.35;;
34900;SDS011;21112;51.976;5.660;2023-02-15T15:05:16;37.65;;;16.45;;
34900;SDS011;21112;51.976;5.660;2023-02-15T15:07:45;43.38;;;17.25;;
34900;SDS011;21112;51.976;5.660;2023-02-15T15:12:57;42.83;;;16.30;;
34900;SDS011;21112;51.976;5.660;2023-02-15T15:15:33;42.45;;;17.80;;
34900;SDS011;21112;51.976;5.660;2023-02-15T15:18:05;37.15;;;16.58;;
34900;SDS011;21112;51.976;5.660;2023-02-15T15:20:46;39.65;;;16.92;;
34900;SDS011;21112;51.976;5.660;2023-02-15T15:26:21;44.75;;;17.40;;
34900;SDS011;21112;51.976;5.660;2023-02-15T15:28:54;37.78;;;16.30;;
34900;SDS011;21112;51.976;5.660;2023-02-15T15:31:41;35.83;;;15.38;;
34900;SDS011;21112;51.976;5.660;2023-02-15T15:42:21;34.55;;;15.38;;
34900;SDS011;21112;51.976;5.660;2023-02-15T15:45:02;36.53;;;16.52;;
34900;SDS011;21112;51.976;5.660;2023-02-15T15:47:37;37.25;;;16.33;;
34900;SDS011;21112;51.976;5.660;2023-02-15T15:50:11;42.50;;;17.08;;
34900;SDS011;21112;51.976;5.660;2023-02-15T15:52:44;34.85;;;16.20;;
34900;SDS011;21112;51.976;5.660;2023-02-15T15:55:28;33.63;;;15.57;;
34900;SDS011;21112;51.976;5.660;2023-02-15T15:58:07;37.10;;;15.73;;
34900;SDS011;21112;51.976;5.660;2023-02-15T16:00:35;36.42;;;15.27;;
34900;SDS011;21112;51.976;5.660;2023-02-15T16:03:03;37.70;;;16.60;;
34900;SDS011;21112;51.976;5.660;2023-02-15T16:05:35;35.20;;;15.23;;
34900;SDS011;21112;51.976;5.660;2023-02-15T16:08:06;40.67;;;17.25;;
34900;SDS011;21112;51.976;5.660;2023-02-15T16:10:37;38.42;;;16.58;;
34900;SDS011;21112;51.976;5.660;2023-02-15T16:13:06;35.13;;;15.77;;
34900;SDS011;21112;51.976;5.660;2023-02-15T16:15:52;40.58;;;16.60;;
34900;SDS011;21112;51.976;5.660;2023-02-15T16:18:20;32.20;;;15.15;;
34900;SDS011;21112;51.976;5.660;2023-02-15T16:20:56;33.97;;;16.17;;
34900;SDS011;21112;51.976;5.660;2023-02-15T16:23:30;35.65;;;15.82;;
34900;SDS011;21112;51.976;5.660;2023-02-15T16:26:31;37.80;;;16.13;;
34900;SDS011;21112;51.976;5.660;2023-02-15T16:29:14;37.70;;;15.60;;
34900;SDS011;21112;51.976;5.660;2023-02-15T16:31:43;34.42;;;15.13;;
34900;SDS011;21112;51.976;5.660;2023-02-15T16:34:26;38.95;;;16.40;;
34900;SDS011;21112;51.976;5.660;2023-02-15T16:37:14;34.38;;;15.38;;
34900;SDS011;21112;51.976;5.660;2023-02-15T16:39:41;39.20;;;16.00;;
34900;SDS011;21112;51.976;5.660;2023-02-15T16:42:16;39.60;;;16.48;;
34900;SDS011;21112;51.976;5.660;2023-02-15T16:44:47;35.60;;;15.55;;
34900;SDS011;21112;51.976;5.660;2023-02-15T16:47:15;38.15;;;15.80;;
34900;SDS011;21112;51.976;5.660;2023-02-15T17:07:51;30.55;;;13.25;;
34900;SDS011;21112;51.976;5.660;2023-02-15T17:13:30;31.85;;;15.40;;
34900;SDS011;21112;51.976;5.660;2023-02-15T17:18:47;36.83;;;15.00;;
34900;SDS011;21112;51.976;5.660;2023-02-15T17:21:30;39.45;;;15.88;;
34900;SDS011;21112;51.976;5.660;2023-02-15T17:29:26;41.58;;;16.08;;